Terminal Aerodrome Forecast
Issued by NWS Portland, ME

Home | Current Version | Previous Version | Text Only | Print | Product List | Glossary On
Versions: 1 2 3 4 5 6 7 8 9 10 11 12 13 14 15 16 17 18 19 20 21 22 23 24 25
000
FTUS41 KGYX 220907 AAA
TAFCON
TAF AMD
KCON 220907Z 2209/2306 01007KT 5SM -RA OVC010
     FM221600 36012G22KT 4SM -RA OVC010
     FM230200 35015G23KT 4SM -RA BR OVC007=

USA.gov is the U.S. government's official web portal to all federal, state and local government web resources and services.